Airport View

Enter AWOS ICAO identifier for current METAR.

ex. KFNL

KIFA 200040Z AUTO 09004KT 10SM SCT013 BKN038 OVC060 02/M03 A3025 RMK AO2 T00151026

20 Oct 2020 00:40

Frequency: 120.425

Phone: 641-648-2469

Other Area AWOS: KHPT - KEBS - KMIW - KCAV

TAF KALO 192323Z 2000/2024 10006KT P6SM OVC040 FM201800 13011KT P6SM OVC025 FM202100 14011KT 5SM -RA BR OVC010